sensor_id;sensor_type;location;lat;lon;timestamp;P1;durP1;ratioP1;P2;durP2;ratioP2
52248;SDS011;38541;48.130;8.378;2022-07-21T00:01:57;8.43;;;6.45;;
52248;SDS011;38541;48.130;8.378;2022-07-21T00:04:24;9.27;;;6.68;;
52248;SDS011;38541;48.130;8.378;2022-07-21T00:06:50;9.18;;;6.60;;
52248;SDS011;38541;48.130;8.378;2022-07-21T00:09:17;6.75;;;5.35;;
52248;SDS011;38541;48.130;8.378;2022-07-21T00:11:44;6.53;;;5.63;;
52248;SDS011;38541;48.130;8.378;2022-07-21T00:14:10;6.10;;;5.50;;
52248;SDS011;38541;48.130;8.378;2022-07-21T00:16:37;5.95;;;5.22;;
52248;SDS011;38541;48.130;8.378;2022-07-21T00:19:06;5.57;;;5.07;;
52248;SDS011;38541;48.130;8.378;2022-07-21T00:21:33;7.32;;;5.50;;
52248;SDS011;38541;48.130;8.378;2022-07-21T00:23:59;5.70;;;5.20;;
52248;SDS011;38541;48.130;8.378;2022-07-21T00:26:26;6.43;;;5.18;;
52248;SDS011;38541;48.130;8.378;2022-07-21T00:28:53;6.10;;;5.20;;
52248;SDS011;38541;48.130;8.378;2022-07-21T00:31:21;6.63;;;5.80;;
52248;SDS011;38541;48.130;8.378;2022-07-21T00:33:47;6.35;;;5.75;;
52248;SDS011;38541;48.130;8.378;2022-07-21T00:36:18;8.88;;;5.93;;
52248;SDS011;38541;48.130;8.378;2022-07-21T00:38:46;7.47;;;5.55;;
52248;SDS011;38541;48.130;8.378;2022-07-21T00:41:13;6.22;;;5.63;;
52248;SDS011;38541;48.130;8.378;2022-07-21T00:43:39;6.25;;;5.65;;
52248;SDS011;38541;48.130;8.378;2022-07-21T00:46:06;6.20;;;5.60;;
52248;SDS011;38541;48.130;8.378;2022-07-21T00:48:32;6.82;;;6.13;;
52248;SDS011;38541;48.130;8.378;2022-07-21T00:50:59;7.22;;;6.53;;
52248;SDS011;38541;48.130;8.378;2022-07-21T00:53:26;8.43;;;6.35;;
52248;SDS011;38541;48.130;8.378;2022-07-21T00:55:52;7.43;;;6.45;;
52248;SDS011;38541;48.130;8.378;2022-07-21T00:58:19;8.20;;;7.40;;
52248;SDS011;38541;48.130;8.378;2022-07-21T01:00:48;7.05;;;6.35;;
52248;SDS011;38541;48.130;8.378;2022-07-21T01:03:15;7.05;;;6.40;;
52248;SDS011;38541;48.130;8.378;2022-07-21T01:05:41;7.43;;;6.72;;
52248;SDS011;38541;48.130;8.378;2022-07-21T01:08:08;6.65;;;5.95;;
52248;SDS011;38541;48.130;8.378;2022-07-21T01:10:34;8.13;;;7.43;;
52248;SDS011;38541;48.130;8.378;2022-07-21T01:13:01;7.05;;;6.38;;
52248;SDS011;38541;48.130;8.378;2022-07-21T01:18:16;9.57;;;6.28;;
52248;SDS011;38541;48.130;8.378;2022-07-21T01:20:44;6.95;;;6.32;;
52248;SDS011;38541;48.130;8.378;2022-07-21T01:23:18;7.28;;;6.57;;
52248;SDS011;38541;48.130;8.378;2022-07-21T01:25:47;6.78;;;6.18;;
52248;SDS011;38541;48.130;8.378;2022-07-21T01:28:14;7.30;;;6.70;;
52248;SDS011;38541;48.130;8.378;2022-07-21T01:30:41;8.82;;;6.70;;
52248;SDS011;38541;48.130;8.378;2022-07-21T01:33:08;6.75;;;6.05;;
52248;SDS011;38541;48.130;8.378;2022-07-21T01:35:34;7.53;;;6.55;;
52248;SDS011;38541;48.130;8.378;2022-07-21T01:38:01;6.88;;;6.18;;
52248;SDS011;38541;48.130;8.378;2022-07-21T01:40:29;7.55;;;6.75;;
52248;SDS011;38541;48.130;8.378;2022-07-21T01:43:14;6.70;;;6.10;;
52248;SDS011;38541;48.130;8.378;2022-07-21T01:45:41;6.93;;;6.22;;
52248;SDS011;38541;48.130;8.378;2022-07-21T01:48:08;7.18;;;6.45;;
52248;SDS011;38541;48.130;8.378;2022-07-21T01:50:35;7.43;;;6.68;;
52248;SDS011;38541;48.130;8.378;2022-07-21T01:53:02;7.55;;;6.75;;
52248;SDS011;38541;48.130;8.378;2022-07-21T01:55:28;7.03;;;6.43;;
52248;SDS011;38541;48.130;8.378;2022-07-21T01:57:56;8.00;;;7.20;;
52248;SDS011;38541;48.130;8.378;2022-07-21T02:00:23;6.93;;;6.32;;
52248;SDS011;38541;48.130;8.378;2022-07-21T02:02:50;7.72;;;6.13;;
52248;SDS011;38541;48.130;8.378;2022-07-21T02:05:16;7.13;;;6.45;;
52248;SDS011;38541;48.130;8.378;2022-07-21T02:07:43;6.65;;;5.95;;
52248;SDS011;38541;48.130;8.378;2022-07-21T02:10:10;8.30;;;6.63;;
52248;SDS011;38541;48.130;8.378;2022-07-21T02:12:36;6.45;;;5.95;;
52248;SDS011;38541;48.130;8.378;2022-07-21T02:15:03;7.90;;;7.10;;
52248;SDS011;38541;48.130;8.378;2022-07-21T02:17:30;7.10;;;6.47;;
52248;SDS011;38541;48.130;8.378;2022-07-21T02:19:57;7.20;;;6.43;;
52248;SDS011;38541;48.130;8.378;2022-07-21T02:22:23;7.70;;;6.85;;
52248;SDS011;38541;48.130;8.378;2022-07-21T02:24:50;6.70;;;6.10;;
52248;SDS011;38541;48.130;8.378;2022-07-21T02:27:16;6.45;;;5.90;;
52248;SDS011;38541;48.130;8.378;2022-07-21T02:29:44;8.38;;;6.63;;
52248;SDS011;38541;48.130;8.378;2022-07-21T02:32:10;9.90;;;6.57;;
52248;SDS011;38541;48.130;8.378;2022-07-21T02:34:37;8.15;;;7.45;;
52248;SDS011;38541;48.130;8.378;2022-07-21T02:37:03;7.57;;;6.55;;
52248;SDS011;38541;48.130;8.378;2022-07-21T02:39:30;7.38;;;6.68;;
52248;SDS011;38541;48.130;8.378;2022-07-21T02:41:56;7.68;;;6.97;;
52248;SDS011;38541;48.130;8.378;2022-07-21T02:44:24;6.90;;;6.22;;
52248;SDS011;38541;48.130;8.378;2022-07-21T02:46:50;6.75;;;6.18;;
52248;SDS011;38541;48.130;8.378;2022-07-21T02:49:17;7.32;;;6.63;;
52248;SDS011;38541;48.130;8.378;2022-07-21T02:51:43;7.05;;;6.45;;
52248;SDS011;38541;48.130;8.378;2022-07-21T02:54:10;6.70;;;6.10;;
52248;SDS011;38541;48.130;8.378;2022-07-21T02:56:37;6.57;;;5.88;;
52248;SDS011;38541;48.130;8.378;2022-07-21T02:59:05;8.40;;;7.57;;
52248;SDS011;38541;48.130;8.378;2022-07-21T03:01:31;7.75;;;6.50;;
52248;SDS011;38541;48.130;8.378;2022-07-21T03:03:58;7.75;;;7.05;;
52248;SDS011;38541;48.130;8.378;2022-07-21T03:06:25;7.45;;;6.65;;
52248;SDS011;38541;48.130;8.378;2022-07-21T03:08:51;6.90;;;6.30;;
52248;SDS011;38541;48.130;8.378;2022-07-21T03:11:18;7.80;;;6.85;;
52248;SDS011;38541;48.130;8.378;2022-07-21T03:13:45;8.13;;;7.13;;
52248;SDS011;38541;48.130;8.378;2022-07-21T03:16:11;7.97;;;7.15;;
52248;SDS011;38541;48.130;8.378;2022-07-21T03:18:38;7.32;;;6.63;;
52248;SDS011;38541;48.130;8.378;2022-07-21T03:21:05;7.00;;;6.40;;
52248;SDS011;38541;48.130;8.378;2022-07-21T03:23:31;6.50;;;5.88;;
52248;SDS011;38541;48.130;8.378;2022-07-21T03:25:58;6.30;;;5.75;;
52248;SDS011;38541;48.130;8.378;2022-07-21T03:28:24;7.53;;;6.75;;
52248;SDS011;38541;48.130;8.378;2022-07-21T03:30:51;8.45;;;7.63;;
52248;SDS011;38541;48.130;8.378;2022-07-21T03:33:17;8.07;;;7.25;;
52248;SDS011;38541;48.130;8.378;2022-07-21T03:35:44;7.28;;;6.57;;
52248;SDS011;38541;48.130;8.378;2022-07-21T03:38:11;7.60;;;6.90;;
52248;SDS011;38541;48.130;8.378;2022-07-21T03:40:38;7.68;;;6.65;;
52248;SDS011;38541;48.130;8.378;2022-07-21T03:43:05;8.88;;;7.68;;
52248;SDS011;38541;48.130;8.378;2022-07-21T03:45:34;7.90;;;7.15;;
52248;SDS011;38541;48.130;8.378;2022-07-21T03:48:03;7.75;;;6.95;;
52248;SDS011;38541;48.130;8.378;2022-07-21T03:50:30;8.02;;;7.28;;
52248;SDS011;38541;48.130;8.378;2022-07-21T03:52:57;9.25;;;7.25;;
52248;SDS011;38541;48.130;8.378;2022-07-21T03:55:24;8.57;;;7.50;;
52248;SDS011;38541;48.130;8.378;2022-07-21T03:57:52;7.38;;;6.70;;
52248;SDS011;38541;48.130;8.378;2022-07-21T04:00:24;7.55;;;6.85;;
52248;SDS011;38541;48.130;8.378;2022-07-21T04:02:53;7.07;;;6.38;;
52248;SDS011;38541;48.130;8.378;2022-07-21T04:05:20;8.20;;;6.82;;
52248;SDS011;38541;48.130;8.378;2022-07-21T04:07:48;7.88;;;7.18;;
52248;SDS011;38541;48.130;8.378;2022-07-21T04:10:17;8.13;;;7.43;;
52248;SDS011;38541;48.130;8.378;2022-07-21T04:12:46;7.85;;;7.15;;
52248;SDS011;38541;48.130;8.378;2022-07-21T04:15:14;8.98;;;7.63;;
52248;SDS011;38541;48.130;8.378;2022-07-21T04:17:40;9.07;;;7.32;;
52248;SDS011;38541;48.130;8.378;2022-07-21T04:20:08;7.88;;;7.07;;
52248;SDS011;38541;48.130;8.378;2022-07-21T04:22:36;7.07;;;6.47;;
52248;SDS011;38541;48.130;8.378;2022-07-21T04:25:04;7.70;;;7.00;;
52248;SDS011;38541;48.130;8.378;2022-07-21T04:27:32;8.77;;;7.55;;
52248;SDS011;38541;48.130;8.378;2022-07-21T04:29:59;7.35;;;6.65;;
52248;SDS011;38541;48.130;8.378;2022-07-21T04:32:26;8.57;;;7.80;;
52248;SDS011;38541;48.130;8.378;2022-07-21T04:34:52;8.02;;;7.32;;
52248;SDS011;38541;48.130;8.378;2022-07-21T04:37:19;8.15;;;7.35;;
52248;SDS011;38541;48.130;8.378;2022-07-21T04:39:46;7.68;;;6.97;;
52248;SDS011;38541;48.130;8.378;2022-07-21T04:42:18;7.80;;;7.10;;
52248;SDS011;38541;48.130;8.378;2022-07-21T04:44:46;7.97;;;7.15;;
52248;SDS011;38541;48.130;8.378;2022-07-21T04:47:13;7.50;;;6.78;;
52248;SDS011;38541;48.130;8.378;2022-07-21T04:49:39;7.93;;;7.15;;
52248;SDS011;38541;48.130;8.378;2022-07-21T04:52:06;9.30;;;7.45;;
52248;SDS011;38541;48.130;8.378;2022-07-21T04:54:32;8.00;;;7.20;;
52248;SDS011;38541;48.130;8.378;2022-07-21T04:56:59;7.43;;;6.72;;
52248;SDS011;38541;48.130;8.378;2022-07-21T04:59:29;8.32;;;7.07;;
52248;SDS011;38541;48.130;8.378;2022-07-21T05:01:56;7.88;;;7.18;;
52248;SDS011;38541;48.130;8.378;2022-07-21T05:04:24;8.82;;;7.95;;
52248;SDS011;38541;48.130;8.378;2022-07-21T05:06:51;8.80;;;7.78;;
52248;SDS011;38541;48.130;8.378;2022-07-21T05:09:18;7.78;;;7.05;;
52248;SDS011;38541;48.130;8.378;2022-07-21T05:11:44;8.60;;;7.80;;
52248;SDS011;38541;48.130;8.378;2022-07-21T05:14:11;9.65;;;7.88;;
52248;SDS011;38541;48.130;8.378;2022-07-21T05:16:40;8.15;;;7.45;;
52248;SDS011;38541;48.130;8.378;2022-07-21T05:19:07;8.15;;;7.45;;
52248;SDS011;38541;48.130;8.378;2022-07-21T05:21:34;12.48;;;7.45;;
52248;SDS011;38541;48.130;8.378;2022-07-21T05:24:01;8.38;;;7.57;;
52248;SDS011;38541;48.130;8.378;2022-07-21T05:26:27;8.52;;;7.70;;
52248;SDS011;38541;48.130;8.378;2022-07-21T05:28:54;8.23;;;7.43;;
52248;SDS011;38541;48.130;8.378;2022-07-21T05:31:22;8.30;;;7.30;;
52248;SDS011;38541;48.130;8.378;2022-07-21T05:33:48;8.18;;;7.38;;
52248;SDS011;38541;48.130;8.378;2022-07-21T05:36:15;7.80;;;6.97;;
52248;SDS011;38541;48.130;8.378;2022-07-21T05:38:42;8.93;;;8.00;;
52248;SDS011;38541;48.130;8.378;2022-07-21T05:41:09;8.30;;;7.45;;
52248;SDS011;38541;48.130;8.378;2022-07-21T05:43:35;7.63;;;6.95;;
52248;SDS011;38541;48.130;8.378;2022-07-21T05:46:02;7.75;;;7.03;;
52248;SDS011;38541;48.130;8.378;2022-07-21T05:48:29;8.35;;;7.65;;
52248;SDS011;38541;48.130;8.378;2022-07-21T05:50:55;8.98;;;7.43;;
52248;SDS011;38541;48.130;8.378;2022-07-21T05:53:22;7.70;;;6.18;;
52248;SDS011;38541;48.130;8.378;2022-07-21T05:55:48;6.38;;;5.78;;
52248;SDS011;38541;48.130;8.378;2022-07-21T05:58:15;7.13;;;6.50;;
52248;SDS011;38541;48.130;8.378;2022-07-21T06:00:44;7.65;;;6.85;;
52248;SDS011;38541;48.130;8.378;2022-07-21T06:03:31;7.15;;;6.43;;
52248;SDS011;38541;48.130;8.378;2022-07-21T06:05:57;8.45;;;6.50;;
52248;SDS011;38541;48.130;8.378;2022-07-21T06:08:24;7.22;;;6.53;;
52248;SDS011;38541;48.130;8.378;2022-07-21T06:10:50;7.03;;;6.28;;
52248;SDS011;38541;48.130;8.378;2022-07-21T06:13:17;7.05;;;6.45;;
52248;SDS011;38541;48.130;8.378;2022-07-21T06:15:43;7.20;;;6.47;;
52248;SDS011;38541;48.130;8.378;2022-07-21T06:18:10;6.78;;;6.10;;
52248;SDS011;38541;48.130;8.378;2022-07-21T06:20:36;7.13;;;6.43;;
52248;SDS011;38541;48.130;8.378;2022-07-21T06:23:03;7.10;;;6.40;;
52248;SDS011;38541;48.130;8.378;2022-07-21T06:25:29;8.85;;;6.50;;
52248;SDS011;38541;48.130;8.378;2022-07-21T06:27:56;7.10;;;6.50;;
52248;SDS011;38541;48.130;8.378;2022-07-21T06:30:22;6.85;;;5.95;;
52248;SDS011;38541;48.130;8.378;2022-07-21T06:32:49;6.22;;;5.55;;
52248;SDS011;38541;48.130;8.378;2022-07-21T06:35:16;6.30;;;5.78;;
52248;SDS011;38541;48.130;8.378;2022-07-21T06:37:45;6.40;;;5.80;;
52248;SDS011;38541;48.130;8.378;2022-07-21T06:40:13;6.13;;;5.63;;
52248;SDS011;38541;48.130;8.378;2022-07-21T06:42:39;6.63;;;5.95;;
52248;SDS011;38541;48.130;8.378;2022-07-21T06:45:26;7.03;;;6.32;;
52248;SDS011;38541;48.130;8.378;2022-07-21T06:48:03;6.88;;;6.05;;
52248;SDS011;38541;48.130;8.378;2022-07-21T06:50:31;6.90;;;6.20;;
52248;SDS011;38541;48.130;8.378;2022-07-21T06:52:58;7.75;;;6.35;;
52248;SDS011;38541;48.130;8.378;2022-07-21T06:55:24;6.38;;;5.78;;
52248;SDS011;38541;48.130;8.378;2022-07-21T06:57:51;6.40;;;5.85;;
52248;SDS011;38541;48.130;8.378;2022-07-21T07:00:17;5.53;;;4.80;;
52248;SDS011;38541;48.130;8.378;2022-07-21T07:02:44;7.07;;;5.70;;
52248;SDS011;38541;48.130;8.378;2022-07-21T07:05:11;5.90;;;5.32;;
52248;SDS011;38541;48.130;8.378;2022-07-21T07:07:38;6.25;;;5.15;;
52248;SDS011;38541;48.130;8.378;2022-07-21T07:10:04;6.05;;;5.53;;
52248;SDS011;38541;48.130;8.378;2022-07-21T07:12:31;6.82;;;5.65;;
52248;SDS011;38541;48.130;8.378;2022-07-21T07:15:18;7.15;;;6.45;;
52248;SDS011;38541;48.130;8.378;2022-07-21T07:17:45;5.93;;;5.32;;
52248;SDS011;38541;48.130;8.378;2022-07-21T07:20:11;5.88;;;5.38;;
52248;SDS011;38541;48.130;8.378;2022-07-21T07:22:38;7.75;;;5.78;;
52248;SDS011;38541;48.130;8.378;2022-07-21T07:25:05;5.93;;;5.43;;
52248;SDS011;38541;48.130;8.378;2022-07-21T07:27:32;6.13;;;5.25;;
52248;SDS011;38541;48.130;8.378;2022-07-21T07:30:00;6.82;;;6.13;;
52248;SDS011;38541;48.130;8.378;2022-07-21T07:32:34;5.47;;;5.05;;
52248;SDS011;38541;48.130;8.378;2022-07-21T07:35:01;5.63;;;4.80;;
52248;SDS011;38541;48.130;8.378;2022-07-21T07:37:27;5.40;;;5.00;;
52248;SDS011;38541;48.130;8.378;2022-07-21T07:39:54;5.95;;;5.30;;
52248;SDS011;38541;48.130;8.378;2022-07-21T07:42:21;4.85;;;4.45;;
52248;SDS011;38541;48.130;8.378;2022-07-21T07:44:47;5.20;;;4.65;;
52248;SDS011;38541;48.130;8.378;2022-07-21T07:47:14;3.88;;;3.45;;
52248;SDS011;38541;48.130;8.378;2022-07-21T07:49:40;4.70;;;3.65;;
52248;SDS011;38541;48.130;8.378;2022-07-21T07:52:07;4.60;;;4.18;;
52248;SDS011;38541;48.130;8.378;2022-07-21T07:54:34;4.35;;;3.95;;
52248;SDS011;38541;48.130;8.378;2022-07-21T07:57:00;5.18;;;4.70;;
52248;SDS011;38541;48.130;8.378;2022-07-21T07:59:27;8.38;;;4.45;;
52248;SDS011;38541;48.130;8.378;2022-07-21T08:01:53;4.15;;;3.75;;
52248;SDS011;38541;48.130;8.378;2022-07-21T08:04:20;6.00;;;4.55;;
52248;SDS011;38541;48.130;8.378;2022-07-21T08:06:47;5.70;;;4.93;;
52248;SDS011;38541;48.130;8.378;2022-07-21T08:09:13;4.10;;;3.70;;
52248;SDS011;38541;48.130;8.378;2022-07-21T08:11:41;3.90;;;3.60;;
52248;SDS011;38541;48.130;8.378;2022-07-21T08:14:07;3.65;;;3.35;;
52248;SDS011;38541;48.130;8.378;2022-07-21T08:16:34;6.13;;;3.75;;
52248;SDS011;38541;48.130;8.378;2022-07-21T08:19:01;4.60;;;3.20;;
52248;SDS011;38541;48.130;8.378;2022-07-21T08:21:28;3.83;;;3.42;;
52248;SDS011;38541;48.130;8.378;2022-07-21T08:24:16;3.15;;;2.85;;
52248;SDS011;38541;48.130;8.378;2022-07-21T08:26:43;3.33;;;3.03;;
52248;SDS011;38541;48.130;8.378;2022-07-21T08:29:10;3.63;;;3.33;;
52248;SDS011;38541;48.130;8.378;2022-07-21T08:31:37;2.97;;;2.78;;
52248;SDS011;38541;48.130;8.378;2022-07-21T08:34:04;3.35;;;2.83;;
52248;SDS011;38541;48.130;8.378;2022-07-21T08:36:30;2.95;;;2.63;;
52248;SDS011;38541;48.130;8.378;2022-07-21T08:38:57;3.55;;;3.25;;
52248;SDS011;38541;48.130;8.378;2022-07-21T08:41:24;3.38;;;2.83;;
52248;SDS011;38541;48.130;8.378;2022-07-21T08:43:51;3.75;;;3.38;;
52248;SDS011;38541;48.130;8.378;2022-07-21T08:46:21;3.42;;;3.13;;
52248;SDS011;38541;48.130;8.378;2022-07-21T08:48:49;3.22;;;2.92;;
52248;SDS011;38541;48.130;8.378;2022-07-21T08:51:17;5.85;;;2.97;;
52248;SDS011;38541;48.130;8.378;2022-07-21T08:53:44;4.28;;;3.00;;
52248;SDS011;38541;48.130;8.378;2022-07-21T08:56:12;3.55;;;3.25;;
52248;SDS011;38541;48.130;8.378;2022-07-21T08:58:39;4.20;;;3.42;;
52248;SDS011;38541;48.130;8.378;2022-07-21T09:01:06;4.68;;;4.28;;
52248;SDS011;38541;48.130;8.378;2022-07-21T09:03:33;3.90;;;3.60;;
52248;SDS011;38541;48.130;8.378;2022-07-21T09:06:11;4.55;;;3.60;;
52248;SDS011;38541;48.130;8.378;2022-07-21T09:08:41;2.90;;;2.70;;
52248;SDS011;38541;48.130;8.378;2022-07-21T09:11:09;3.17;;;2.97;;
52248;SDS011;38541;48.130;8.378;2022-07-21T09:14:09;3.78;;;3.47;;
52248;SDS011;38541;48.130;8.378;2022-07-21T09:19:54;4.10;;;3.30;;
52248;SDS011;38541;48.130;8.378;2022-07-21T09:22:05;4.55;;;3.33;;
52248;SDS011;38541;48.130;8.378;2022-07-21T09:24:37;3.55;;;3.25;;
52248;SDS011;38541;48.130;8.378;2022-07-21T09:27:07;6.38;;;4.32;;
52248;SDS011;38541;48.130;8.378;2022-07-21T09:29:40;3.40;;;3.03;;
52248;SDS011;38541;48.130;8.378;2022-07-21T09:32:14;3.63;;;3.08;;
52248;SDS011;38541;48.130;8.378;2022-07-21T09:34:52;6.57;;;3.60;;
52248;SDS011;38541;48.130;8.378;2022-07-21T09:37:21;3.85;;;2.95;;
52248;SDS011;38541;48.130;8.378;2022-07-21T09:39:53;3.80;;;3.03;;
52248;SDS011;38541;48.130;8.378;2022-07-21T09:42:31;4.43;;;2.88;;
52248;SDS011;38541;48.130;8.378;2022-07-21T09:45:09;4.35;;;2.83;;
52248;SDS011;38541;48.130;8.378;2022-07-21T09:47:38;2.78;;;2.58;;
52248;SDS011;38541;48.130;8.378;2022-07-21T09:50:07;2.97;;;2.78;;
52248;SDS011;38541;48.130;8.378;2022-07-21T09:52:50;2.75;;;2.55;;
52248;SDS011;38541;48.130;8.378;2022-07-21T09:55:19;4.55;;;3.22;;
52248;SDS011;38541;48.130;8.378;2022-07-21T09:57:46;3.53;;;2.78;;
52248;SDS011;38541;48.130;8.378;2022-07-21T10:00:16;4.30;;;3.20;;
52248;SDS011;38541;48.130;8.378;2022-07-21T10:02:47;3.65;;;2.97;;
52248;SDS011;38541;48.130;8.378;2022-07-21T10:05:19;4.13;;;3.33;;
52248;SDS011;38541;48.130;8.378;2022-07-21T10:07:57;3.80;;;3.00;;
52248;SDS011;38541;48.130;8.378;2022-07-21T10:10:24;3.08;;;2.88;;
52248;SDS011;38541;48.130;8.378;2022-07-21T10:13:10;2.90;;;2.70;;
52248;SDS011;38541;48.130;8.378;2022-07-21T10:15:37;5.10;;;3.55;;
52248;SDS011;38541;48.130;8.378;2022-07-21T10:18:07;3.00;;;2.80;;
52248;SDS011;38541;48.130;8.378;2022-07-21T10:20:37;3.63;;;3.00;;
52248;SDS011;38541;48.130;8.378;2022-07-21T10:23:14;3.40;;;2.92;;
52248;SDS011;38541;48.130;8.378;2022-07-21T10:25:57;2.88;;;2.50;;
52248;SDS011;38541;48.130;8.378;2022-07-21T10:28:28;3.33;;;3.03;;
52248;SDS011;38541;48.130;8.378;2022-07-21T10:30:58;3.20;;;3.00;;
52248;SDS011;38541;48.130;8.378;2022-07-21T10:36:11;2.88;;;2.67;;
52248;SDS011;38541;48.130;8.378;2022-07-21T10:41:36;2.78;;;2.58;;
52248;SDS011;38541;48.130;8.378;2022-07-21T10:44:37;5.97;;;3.42;;
52248;SDS011;38541;48.130;8.378;2022-07-21T10:49:56;2.95;;;2.70;;
52248;SDS011;38541;48.130;8.378;2022-07-21T10:57:38;4.28;;;3.10;;
52248;SDS011;38541;48.130;8.378;2022-07-21T11:00:24;3.50;;;3.20;;
52248;SDS011;38541;48.130;8.378;2022-07-21T11:03:00;2.63;;;2.42;;
52248;SDS011;38541;48.130;8.378;2022-07-21T11:05:29;3.00;;;2.70;;
52248;SDS011;38541;48.130;8.378;2022-07-21T11:10:49;2.70;;;2.47;;
52248;SDS011;38541;48.130;8.378;2022-07-21T11:13:20;2.55;;;2.35;;
52248;SDS011;38541;48.130;8.378;2022-07-21T11:15:58;2.60;;;2.40;;
52248;SDS011;38541;48.130;8.378;2022-07-21T11:18:27;2.90;;;2.70;;
52248;SDS011;38541;48.130;8.378;2022-07-21T11:21:12;2.88;;;2.53;;
52248;SDS011;38541;48.130;8.378;2022-07-21T11:23:49;3.90;;;2.90;;
52248;SDS011;38541;48.130;8.378;2022-07-21T11:26:18;2.63;;;2.42;;
52248;SDS011;38541;48.130;8.378;2022-07-21T11:29:02;2.40;;;2.20;;
52248;SDS011;38541;48.130;8.378;2022-07-21T11:31:30;3.08;;;2.47;;
52248;SDS011;38541;48.130;8.378;2022-07-21T11:33:57;2.65;;;2.47;;
52248;SDS011;38541;48.130;8.378;2022-07-21T11:36:29;2.53;;;2.33;;
52248;SDS011;38541;48.130;8.378;2022-07-21T11:38:58;2.28;;;2.17;;
52248;SDS011;38541;48.130;8.378;2022-07-21T11:41:36;3.13;;;2.83;;
52248;SDS011;38541;48.130;8.378;2022-07-21T11:44:07;2.47;;;2.28;;
52248;SDS011;38541;48.130;8.378;2022-07-21T11:46:52;2.58;;;2.38;;
52248;SDS011;38541;48.130;8.378;2022-07-21T11:49:19;6.70;;;2.75;;
52248;SDS011;38541;48.130;8.378;2022-07-21T11:51:53;2.70;;;2.50;;
52248;SDS011;38541;48.130;8.378;2022-07-21T11:56:53;2.15;;;2.03;;
52248;SDS011;38541;48.130;8.378;2022-07-21T11:59:22;2.50;;;2.30;;
52248;SDS011;38541;48.130;8.378;2022-07-21T12:01:51;2.15;;;2.00;;
52248;SDS011;38541;48.130;8.378;2022-07-21T12:04:33;2.83;;;2.63;;
52248;SDS011;38541;48.130;8.378;2022-07-21T12:07:01;3.08;;;2.83;;
52248;SDS011;38541;48.130;8.378;2022-07-21T12:09:29;5.07;;;2.92;;
52248;SDS011;38541;48.130;8.378;2022-07-21T12:11:56;3.13;;;2.70;;
52248;SDS011;38541;48.130;8.378;2022-07-21T12:14:40;2.70;;;2.50;;
52248;SDS011;38541;48.130;8.378;2022-07-21T12:17:11;4.93;;;3.45;;
52248;SDS011;38541;48.130;8.378;2022-07-21T12:19:38;3.28;;;2.97;;
52248;SDS011;38541;48.130;8.378;2022-07-21T12:22:05;3.63;;;2.50;;
52248;SDS011;38541;48.130;8.378;2022-07-21T12:27:22;3.05;;;2.75;;
52248;SDS011;38541;48.130;8.378;2022-07-21T12:29:49;3.10;;;2.80;;
52248;SDS011;38541;48.130;8.378;2022-07-21T12:32:37;5.07;;;3.20;;
52248;SDS011;38541;48.130;8.378;2022-07-21T12:35:04;2.42;;;2.22;;
52248;SDS011;38541;48.130;8.378;2022-07-21T12:37:51;3.08;;;2.58;;
52248;SDS011;38541;48.130;8.378;2022-07-21T12:40:39;3.88;;;2.55;;
52248;SDS011;38541;48.130;8.378;2022-07-21T12:43:30;2.80;;;2.60;;
52248;SDS011;38541;48.130;8.378;2022-07-21T12:48:32;2.70;;;2.50;;
52248;SDS011;38541;48.130;8.378;2022-07-21T12:53:29;3.60;;;2.67;;
52248;SDS011;38541;48.130;8.378;2022-07-21T12:55:57;2.63;;;2.42;;
52248;SDS011;38541;48.130;8.378;2022-07-21T12:58:24;3.10;;;2.80;;
52248;SDS011;38541;48.130;8.378;2022-07-21T13:00:50;3.75;;;3.00;;
52248;SDS011;38541;48.130;8.378;2022-07-21T13:03:17;2.70;;;2.50;;
52248;SDS011;38541;48.130;8.378;2022-07-21T13:05:44;3.55;;;2.97;;
52248;SDS011;38541;48.130;8.378;2022-07-21T13:08:10;2.70;;;2.50;;
52248;SDS011;38541;48.130;8.378;2022-07-21T13:10:37;3.05;;;2.67;;
52248;SDS011;38541;48.130;8.378;2022-07-21T13:13:03;2.80;;;2.25;;
52248;SDS011;38541;48.130;8.378;2022-07-21T13:15:30;2.90;;;2.63;;
52248;SDS011;38541;48.130;8.378;2022-07-21T13:17:57;2.75;;;2.55;;
52248;SDS011;38541;48.130;8.378;2022-07-21T13:20:23;2.17;;;1.98;;
52248;SDS011;38541;48.130;8.378;2022-07-21T13:22:50;2.00;;;1.90;;
52248;SDS011;38541;48.130;8.378;2022-07-21T13:25:17;2.40;;;2.20;;
52248;SDS011;38541;48.130;8.378;2022-07-21T13:27:43;2.50;;;2.30;;
52248;SDS011;38541;48.130;8.378;2022-07-21T13:30:14;2.40;;;2.10;;
52248;SDS011;38541;48.130;8.378;2022-07-21T13:32:41;2.55;;;2.35;;
52248;SDS011;38541;48.130;8.378;2022-07-21T13:35:07;2.78;;;2.58;;
52248;SDS011;38541;48.130;8.378;2022-07-21T13:37:51;3.10;;;2.15;;
52248;SDS011;38541;48.130;8.378;2022-07-21T13:40:17;2.60;;;2.40;;
52248;SDS011;38541;48.130;8.378;2022-07-21T13:43:04;2.88;;;2.28;;
52248;SDS011;38541;48.130;8.378;2022-07-21T13:45:51;3.80;;;2.50;;
52248;SDS011;38541;48.130;8.378;2022-07-21T13:48:18;2.50;;;2.30;;
52248;SDS011;38541;48.130;8.378;2022-07-21T13:50:44;2.40;;;2.20;;
52248;SDS011;38541;48.130;8.378;2022-07-21T13:53:11;4.25;;;2.53;;
52248;SDS011;38541;48.130;8.378;2022-07-21T13:55:38;2.45;;;2.25;;
52248;SDS011;38541;48.130;8.378;2022-07-21T13:58:05;2.60;;;2.40;;
52248;SDS011;38541;48.130;8.378;2022-07-21T14:00:33;3.45;;;2.58;;
52248;SDS011;38541;48.130;8.378;2022-07-21T14:03:08;2.88;;;2.63;;
52248;SDS011;38541;48.130;8.378;2022-07-21T14:05:34;3.00;;;2.78;;
52248;SDS011;38541;48.130;8.378;2022-07-21T14:08:01;2.90;;;2.38;;
52248;SDS011;38541;48.130;8.378;2022-07-21T14:10:28;2.60;;;2.50;;
52248;SDS011;38541;48.130;8.378;2022-07-21T14:12:54;4.38;;;2.38;;
52248;SDS011;38541;48.130;8.378;2022-07-21T14:15:21;3.40;;;3.10;;
52248;SDS011;38541;48.130;8.378;2022-07-21T14:17:48;2.88;;;2.63;;
52248;SDS011;38541;48.130;8.378;2022-07-21T14:20:22;2.95;;;2.75;;
52248;SDS011;38541;48.130;8.378;2022-07-21T14:22:51;3.00;;;2.70;;
52248;SDS011;38541;48.130;8.378;2022-07-21T14:25:19;3.08;;;2.85;;
52248;SDS011;38541;48.130;8.378;2022-07-21T14:27:46;2.60;;;2.40;;
52248;SDS011;38541;48.130;8.378;2022-07-21T14:30:14;2.97;;;2.65;;
52248;SDS011;38541;48.130;8.378;2022-07-21T14:32:42;3.72;;;2.83;;
52248;SDS011;38541;48.130;8.378;2022-07-21T14:35:10;3.60;;;3.30;;
52248;SDS011;38541;48.130;8.378;2022-07-21T14:37:37;3.13;;;2.90;;
52248;SDS011;38541;48.130;8.378;2022-07-21T14:40:04;2.60;;;2.40;;
52248;SDS011;38541;48.130;8.378;2022-07-21T14:42:31;2.60;;;2.40;;
52248;SDS011;38541;48.130;8.378;2022-07-21T14:44:58;2.33;;;2.13;;
52248;SDS011;38541;48.130;8.378;2022-07-21T14:47:24;2.92;;;2.65;;
52248;SDS011;38541;48.130;8.378;2022-07-21T14:49:51;2.42;;;2.13;;
52248;SDS011;38541;48.130;8.378;2022-07-21T14:52:18;3.85;;;2.55;;
52248;SDS011;38541;48.130;8.378;2022-07-21T14:54:44;3.33;;;2.70;;
52248;SDS011;38541;48.130;8.378;2022-07-21T14:57:11;3.03;;;2.83;;
52248;SDS011;38541;48.130;8.378;2022-07-21T14:59:37;2.97;;;2.35;;
52248;SDS011;38541;48.130;8.378;2022-07-21T15:02:04;3.22;;;2.95;;
52248;SDS011;38541;48.130;8.378;2022-07-21T15:04:39;2.45;;;2.25;;
52248;SDS011;38541;48.130;8.378;2022-07-21T15:07:06;2.83;;;2.63;;
52248;SDS011;38541;48.130;8.378;2022-07-21T15:09:32;2.75;;;2.55;;
52248;SDS011;38541;48.130;8.378;2022-07-21T15:11:59;2.80;;;2.60;;
52248;SDS011;38541;48.130;8.378;2022-07-21T15:14:25;2.50;;;2.30;;
52248;SDS011;38541;48.130;8.378;2022-07-21T15:16:52;2.33;;;2.22;;
52248;SDS011;38541;48.130;8.378;2022-07-21T15:19:19;2.60;;;2.40;;
52248;SDS011;38541;48.130;8.378;2022-07-21T15:21:46;4.00;;;2.42;;
52248;SDS011;38541;48.130;8.378;2022-07-21T15:24:12;2.70;;;2.50;;
52248;SDS011;38541;48.130;8.378;2022-07-21T15:26:40;2.40;;;2.28;;
52248;SDS011;38541;48.130;8.378;2022-07-21T15:29:06;3.00;;;2.80;;
52248;SDS011;38541;48.130;8.378;2022-07-21T15:31:33;3.22;;;2.42;;